Terminal Aerodrome Forecast
Issued by NWS

Home | Current Version | Previous Version | Text Only | Print | Product List | Glossary On
Versions: 1 2 3 4 5 6 7 8 9 10 11 12 13 14 15
344
FTUS44 KMAF 281729
TAFPEQ
TAF
KPEQ 281729Z 2818/0118 20017KT P6SM BKN250
     FM281900 24023G33KT P6SM BKN250
      TEMPO 2821/0101 6SM BLDU
     FM010100 26012KT P6SM SCT200
     FM011300 30009KT P6SM SCT250=

USA.gov is the U.S. government's official web portal to all federal, state and local government web resources and services.